N334AX / N334AX 7700 Squawk Report (16th of October, 2018)

Time Lat Lon Altitude Heading Speed Vertical Rate
2018-10-16 21:29:10 GMT 34.131634 -119.107704 50 225 142 -384
2018-10-16 21:29:00 GMT 34.136810 -119.101608 125 224 146 -640
2018-10-16 21:28:49 GMT 34.141846 -119.094658 250 237 142 -896
2018-10-16 21:28:39 GMT 34.144623 -119.087852 425 254 145 -576
2018-10-16 21:28:27 GMT 34.145695 -119.078865 625 280 155 -1408
2018-10-16 21:28:17 GMT 34.142807 -119.070107 825 307 163 -896
2018-10-16 21:28:06 GMT 34.135128 -119.063873 1,025 344 172 -1280
2018-10-16 21:27:56 GMT 34.128143 -119.064674 1,150 24 169 -512
2018-10-16 21:27:44 GMT 34.120232 -119.069878 1,250 25 164 -512
2018-10-16 21:27:35 GMT 34.113327 -119.073524 1,400 24 171 -896
2018-10-16 21:27:23 GMT 34.105133 -119.078232 1,575 23 178 -1152
2018-10-16 21:27:13 GMT 34.097187 -119.081841 1,825 18 185 -1472
2018-10-16 21:27:02 GMT 34.088333 -119.084457 2,000 6 201 -832
2018-10-16 21:26:51 GMT 34.077774 -119.085564 2,125 2 212 -640
2018-10-16 21:26:42 GMT 34.066975 -119.085442 2,250 357 221 -768
2018-10-16 21:26:31 GMT 34.056267 -119.084412 2,425 354 231 -704
2018-10-16 21:26:20 GMT 34.044891 -119.081985 2,550 347 237 -896
2018-10-16 21:26:10 GMT 34.032990 -119.077782 2,725 340 244 -640
2018-10-16 21:25:59 GMT 34.021957 -119.072517 2,825 338 249 -704
2018-10-16 21:25:47 GMT 34.010422 -119.066856 3,025 338 252 -1088
2018-10-16 21:25:42 GMT 34.003738 -119.063545 3,125 338 251 -1088
2018-10-16 21:25:37 GMT 33.997879 -119.060745 3,250 339 250 -1152
2018-10-16 21:25:26 GMT 33.987835 -119.055923 5,350 338 245 -1408
2018-10-16 21:25:23 GMT 33.982773 -119.053459 3,550 339 246 -1472
2018-10-16 21:25:12 GMT 33.971466 -119.047966 3,825 338 249 -1536
2018-10-16 21:25:05 GMT 33.964600 -119.044487 3,975 337 252 -1600
2018-10-16 21:24:51 GMT 33.940338 -119.032272 5,350 338 253 -1792
2018-10-16 21:24:42 GMT 33.940338 -119.032272 4,800 337 256 -1920
2018-10-16 21:24:37 GMT 33.933090 -119.028458 4,800 337 256 -1920
2018-10-16 21:24:26 GMT 33.922058 -119.022675 5,125 337 255 -2240
2018-10-16 21:24:23 GMT 33.918365 -119.020836 5,275 339 254 -1728
2018-10-16 21:24:15 GMT 33.909805 -119.017586 5,425 346 255 -704
2018-10-16 21:24:09 GMT 33.904182 -119.015862 5,475 347 257 -768
2018-10-16 21:24:05 GMT 33.899231 -119.014671 5,575 351 257 -1024
2018-10-16 21:24:00 GMT 33.893463 -119.013550 5,825 351 259 -832
2018-10-16 21:23:56 GMT 33.888119 -119.012428 5,725 355 259 -2496
2018-10-16 21:23:51 GMT 33.881416 -119.011169 5,775 352 264 -1280
2018-10-16 21:23:43 GMT 33.871307 -119.009567 5,975 355 259 -2496
2018-10-16 21:23:37 GMT 33.864487 -119.008728 6,175 355 260 -2432
2018-10-16 21:23:34 GMT 33.860413 -119.008224 6,350 355 259 -2496
2018-10-16 21:23:27 GMT 33.852081 -119.007210 6,725 351 255 -1600
2018-10-16 21:23:19 GMT 33.842731 -119.005569 6,775 351 255 -1472
2018-10-16 21:23:15 GMT 33.839676 -119.004974 6,825 351 255 -1344
2018-10-16 21:23:05 GMT 33.827408 -119.002617 7,225 352 248 -1664
2018-10-16 21:23:01 GMT 33.823181 -119.001846 7,200 352 247 -1728
2018-10-16 21:22:55 GMT 33.815002 -119.000542 7,400 354 239 -896
2018-10-16 21:22:43 GMT 33.803284 -118.998749 7,575 353 244 -1344
2018-10-16 21:22:33 GMT 33.791428 -118.996674 7,825 351 247 -1984
2018-10-16 21:22:26 GMT 33.782593 -118.994942 9,625 351 247 -2048
2018-10-16 21:22:23 GMT 33.778793 -118.994263 8,225 353 252 -1920
2018-10-16 21:22:12 GMT 33.766758 -118.992516 8,625 355 254 -2560
2018-10-16 21:22:07 GMT 33.761826 -118.991890 8,800 355 254 -2432
2018-10-16 21:22:04 GMT 33.756546 -118.991241 8,975 354 255 -2752
2018-10-16 21:21:59 GMT 33.751720 -118.990578 9,175 355 259 -2496
2018-10-16 21:21:50 GMT 33.740875 -118.989143 9,850 354 261 -2880
2018-10-16 21:21:45 GMT 33.734360 -118.988342 10,425 355 264 -3520
2018-10-16 21:21:40 GMT 33.728165 -118.987541 10,100 355 264 -3328
2018-10-16 21:21:32 GMT 33.718761 -118.986343 10,500 354 267 -2432
2018-10-16 21:21:28 GMT 33.714706 -118.985802 10,600 354 272 -2176
2018-10-16 21:21:21 GMT 33.704285 -118.984283 10,900 354 274 -1920
2018-10-16 21:21:17 GMT 33.700466 -118.983765 11,000 354 278 -640
2018-10-16 21:21:14 GMT 33.695938 -118.983170 11,100 353 290 -1152
2018-10-16 21:21:07 GMT 33.683941 -118.981361 11,125 353 294 -1472
2018-10-16 21:21:03 GMT 33.681335 -118.980965 11,175 352 296 -1792
2018-10-16 21:21:00 GMT 33.676865 -118.980103 11,275 351 300 -1856
2018-10-16 21:20:57 GMT 33.672318 -118.979134 11,400 350 305 -2368
2018-10-16 21:20:53 GMT 33.668022 -118.978104 11,500 348 310 -3456
2018-10-16 21:20:49 GMT 33.662521 -118.976723 11,650 347 311 -3584
2018-10-16 21:20:45 GMT 33.656757 -118.974953 12,425 336 319 -4736
2018-10-16 21:20:42 GMT 33.651497 -118.972839 12,150 341 315 -3712
2018-10-16 21:20:38 GMT 33.647278 -118.970779 12,350 336 319 -4736
2018-10-16 21:20:35 GMT 33.642471 -118.968033 12,675 332 319 -5248
2018-10-16 21:20:25 GMT 33.631439 -118.957947 13,450 305 325 -3328
2018-10-16 21:20:22 GMT 33.628731 -118.953384 13,625 295 328 -2432
2018-10-16 21:20:16 GMT 33.624775 -118.942741 13,875 291 331 -1856
2018-10-16 21:20:12 GMT 33.623238 -118.937531 13,975 290 336 -1408
2018-10-16 21:20:07 GMT 33.620213 -118.927002 14,150 290 338 -1536
2018-10-16 21:20:02 GMT 33.617615 -118.918312 14,250 290 340 -704
2018-10-16 21:19:58 GMT 33.615185 -118.909782 14,325 290 348 -1024
2018-10-16 21:19:55 GMT 33.614441 -118.907265 14,325 290 351 -896
2018-10-16 21:19:52 GMT 33.612160 -118.899765 14,450 290 352 -896
2018-10-16 21:19:45 GMT 33.609226 -118.889977 14,750 292 363 -1600
2018-10-16 21:19:40 GMT 33.606201 -118.880310 14,700 290 369 -1984
2018-10-16 21:19:33 GMT 33.601311 -118.865829 14,775 292 363 -1728
2018-10-16 21:19:29 GMT 33.599312 -118.859879 14,850 293 364 -1856
2018-10-16 21:19:21 GMT 33.593719 -118.842194 15,150 291 367 -1792
2018-10-16 21:19:18 GMT 33.592575 -118.838326 15,225 290 383 64
2018-10-16 21:19:12 GMT 33.588371 -118.824234 15,500 290 375 256
2018-10-16 21:19:08 GMT 33.586929 -118.819138 15,925 288 374 -448
2018-10-16 21:19:01 GMT 33.583435 -118.806091 15,750 288 375 -2240
2018-10-16 21:18:57 GMT 33.581295 -118.797745 15,925 288 373 -768
2018-10-16 21:18:54 GMT 33.579163 -118.789619 15,925 288 373 -768
2018-10-16 21:18:51 GMT 33.578037 -118.785500 15,925 289 375 256
2018-10-16 21:18:48 GMT 33.575684 -118.777229 15,900 290 376 128
2018-10-16 21:18:41 GMT 33.571793 -118.764282 15,900 290 377 -256
2018-10-16 21:18:36 GMT 33.569004 -118.754997 15,900 290 378 -192
2018-10-16 21:18:31 GMT 33.565746 -118.744125 15,925 290 379 -192
2018-10-16 21:18:25 GMT 33.561790 -118.731079 15,925 290 380 -64
2018-10-16 21:18:18 GMT 33.558746 -118.720955 15,950 290 382 -192
2018-10-16 21:18:14 GMT 33.555908 -118.711365 15,950 290 383 64
2018-10-16 21:18:07 GMT 33.551502 -118.696747 16,000 291 383 -384
2018-10-16 21:18:03 GMT 33.549454 -118.689941 16,025 290 384 -832
2018-10-16 21:17:58 GMT 33.546158 -118.678520 16,050 288 383 896
2018-10-16 21:17:54 GMT 33.543503 -118.668823 16,100 289 382 512
2018-10-16 21:17:48 GMT 33.540466 -118.657722 16,075 288 383 640
2018-10-16 21:17:43 GMT 33.533798 -118.634216 15,975 290 383 704
2018-10-16 21:17:36 GMT 33.533798 -118.634216 15,950 291 383 256
2018-10-16 21:17:32 GMT 33.530960 -118.625481 15,950 292 382 320
2018-10-16 21:17:25 GMT 33.526611 -118.612518 16,000 292 381 -960
2018-10-16 21:17:22 GMT 33.524826 -118.607025 16,000 292 380 -384
2018-10-16 21:17:19 GMT 33.523106 -118.601730 16,025 291 379 320
2018-10-16 21:17:14 GMT 33.517471 -118.584129 16,025 295 376 -576
2018-10-16 21:17:11 GMT 33.517471 -118.584129 16,000 293 377 -128
2018-10-16 21:17:03 GMT 33.512833 -118.572197 16,125 311 367 -576
2018-10-16 21:16:59 GMT 33.507324 -118.563110 16,125 311 367 -576
2018-10-16 21:16:53 GMT 33.500153 -118.555145 16,125 321 362 1024
2018-10-16 21:16:50 GMT 33.495529 -118.550499 16,075 321 363 832
2018-10-16 21:16:41 GMT 33.486469 -118.541412 16,000 320 365 384
2018-10-16 21:16:38 GMT 33.481300 -118.536201 15,975 320 364 128
2018-10-16 21:16:31 GMT 33.472366 -118.527374 15,975 322 363 128
2018-10-16 21:16:27 GMT 33.466682 -118.521965 15,950 322 363 192
2018-10-16 21:16:20 GMT 33.456673 -118.512436 15,950 322 364 0
2018-10-16 21:16:17 GMT 33.449432 -118.505508 15,925 321 363 -64
2018-10-16 21:16:10 GMT 33.444122 -118.500511 15,925 323 364 -64
2018-10-16 21:16:06 GMT 33.438099 -118.494949 15,925 322 364 -128
2018-10-16 21:16:02 GMT 33.434280 -118.491341 15,925 322 364 0
2018-10-16 21:15:59 GMT 33.428928 -118.486145 15,950 321 364 -64
2018-10-16 21:15:54 GMT 33.422287 -118.479637 15,950 321 363 -64
2018-10-16 21:15:47 GMT 33.409515 -118.467537 15,950 322 362 128
2018-10-16 21:15:44 GMT 33.409515 -118.467537 15,950 322 362 64
2018-10-16 21:15:41 GMT 33.407421 -118.465523 15,950 322 361 -128
2018-10-16 21:15:37 GMT 33.401649 -118.460083 15,950 322 360 -192
2018-10-16 21:15:34 GMT 33.396435 -118.455147 15,975 322 358 -768
2018-10-16 21:15:31 GMT 33.394638 -118.453438 16,050 323 355 -128
2018-10-16 21:15:26 GMT 33.386009 -118.445396 16,050 323 356 -192
2018-10-16 21:15:22 GMT 33.382656 -118.442261 16,050 323 355 -128
2018-10-16 21:15:18 GMT 33.375916 -118.436241 16,025 329 353 -128
2018-10-16 21:15:14 GMT 33.369762 -118.431381 16,050 329 353 -128
2018-10-16 21:15:11 GMT 33.361893 -118.426170 16,050 333 351 256
2018-10-16 21:15:04 GMT 33.357788 -118.423775 16,025 336 350 576
2018-10-16 21:15:01 GMT 33.353329 -118.421410 16,000 338 351 512
2018-10-16 21:14:57 GMT 33.345703 -118.418007 15,975 341 352 256
2018-10-16 21:14:54 GMT 33.336617 -118.414902 15,975 347 351 0
2018-10-16 21:14:51 GMT 33.336617 -118.414902 15,975 347 351 0
2018-10-16 21:14:48 GMT 33.331238 -118.413445 15,975 350 351 0
2018-10-16 21:14:44 GMT 33.323868 -118.411911 15,975 352 351 -192
2018-10-16 21:14:40 GMT 33.319656 -118.411194 15,975 354 350 192
2018-10-16 21:14:37 GMT 33.312881 -118.410149 16,000 353 352 -64
2018-10-16 21:14:33 GMT 33.306381 -118.409164 16,000 353 351 -128
2018-10-16 21:14:29 GMT 33.300724 -118.408287 16,000 353 350 -64
2018-10-16 21:14:26 GMT 33.294952 -118.407394 16,025 353 351 -576
2018-10-16 21:14:19 GMT 33.284290 -118.405823 15,975 353 351 -512
2018-10-16 21:14:15 GMT 33.277309 -118.404816 16,025 353 349 -640
2018-10-16 21:14:07 GMT 33.265995 -118.402962 16,075 352 344 128
2018-10-16 21:14:04 GMT 33.259666 -118.401840 16,025 353 344 0
2018-10-16 21:13:56 GMT 33.249889 -118.400276 16,025 353 342 0
2018-10-16 21:13:52 GMT 33.240875 -118.398392 16,000 348 340 128
2018-10-16 21:13:46 GMT 33.233459 -118.395866 15,975 338 337 0
2018-10-16 21:13:42 GMT 33.226456 -118.392570 15,950 337 333 -768
2018-10-16 21:13:37 GMT 33.219677 -118.389229 15,950 337 333 -768
2018-10-16 21:13:34 GMT 33.214321 -118.386482 16,000 337 331 -832
2018-10-16 21:13:28 GMT 33.206268 -118.382446 16,025 337 321 192
2018-10-16 21:13:19 GMT 33.195236 -118.375984 16,025 329 317 -256
2018-10-16 21:13:14 GMT 33.190208 -118.371857 16,050 322 315 -64
2018-10-16 21:13:08 GMT 33.183598 -118.363838 16,025 307 314 384
2018-10-16 21:13:04 GMT 33.179317 -118.356384 16,000 303 315 -64
2018-10-16 21:12:58 GMT 33.174866 -118.347969 16,000 302 314 64
2018-10-16 21:12:53 GMT 33.171204 -118.340935 16,000 301 313 256
2018-10-16 21:12:46 GMT 33.167072 -118.332397 15,975 299 314 -64
2018-10-16 21:12:43 GMT 33.164017 -118.325882 15,975 299 313 0
2018-10-16 21:12:40 GMT 33.162506 -118.322586 15,975 300 312 0
2018-10-16 21:12:35 GMT 33.159302 -118.315613 15,975 300 312 0
2018-10-16 21:12:32 GMT 33.155949 -118.308571 15,950 300 312 384
2018-10-16 21:12:29 GMT 33.154270 -118.304932 15,950 300 312 384
2018-10-16 21:12:25 GMT 33.151566 -118.299240 15,975 299 312 -128
2018-10-16 21:12:21 GMT 33.145248 -118.285782 16,075 300 309 -832
2018-10-16 21:12:12 GMT 33.142914 -118.280769 16,100 300 305 -192
2018-10-16 21:12:09 GMT 33.140537 -118.275780 16,100 300 305 192
2018-10-16 21:12:04 GMT 33.134392 -118.262894 16,025 300 305 256
2018-10-16 21:12:01 GMT 33.134392 -118.262894 16,025 301 304 576
2018-10-16 21:11:50 GMT 33.126984 -118.247993 15,975 300 305 -64
2018-10-16 21:11:43 GMT 33.122131 -118.237335 15,950 296 304 192
2018-10-16 21:11:39 GMT 33.119659 -118.231125 15,950 296 305 192
2018-10-16 21:11:29 GMT 33.113571 -118.215805 15,925 296 304 256
2018-10-16 21:11:20 GMT 33.108444 -118.203110 15,925 297 302 -128
2018-10-16 21:11:17 GMT 33.106888 -118.199211 15,925 296 302 0
2018-10-16 21:11:09 GMT 33.101665 -118.185707 15,950 292 305 -448
2018-10-16 21:11:05 GMT 33.099564 -118.179657 15,975 293 305 -512
2018-10-16 21:10:57 GMT 33.094803 -118.166916 16,000 295 306 -704
2018-10-16 21:10:49 GMT 33.089981 -118.154373 16,200 295 307 -1152
2018-10-16 21:10:45 GMT 33.087982 -118.149101 16,325 295 308 -1536
2018-10-16 21:10:37 GMT 33.083279 -118.136826 16,300 296 309 1088
2018-10-16 21:10:32 GMT 33.080887 -118.130661 16,250 295 308 1024
2018-10-16 21:10:27 GMT 33.077362 -118.121651 16,125 296 316 512
2018-10-16 21:10:24 GMT 33.075085 -118.115807 16,100 295 315 384
2018-10-16 21:10:18 GMT 33.069580 -118.101707 16,050 295 319 448
2018-10-16 21:10:15 GMT 33.069580 -118.101707 16,025 295 320 448
2018-10-16 21:10:11 GMT 33.067451 -118.096245 16,000 295 323 128
2018-10-16 21:10:06 GMT 33.063904 -118.086769 15,975 295 326 -256
2018-10-16 21:10:02 GMT 33.061352 -118.080048 15,975 294 329 -320
2018-10-16 21:09:55 GMT 33.057175 -118.068916 16,025 295 333 -128
2018-10-16 21:09:50 GMT 33.053860 -118.060036 16,025 295 334 -192
2018-10-16 21:09:41 GMT 33.048706 -118.046722 16,050 295 343 128
2018-10-16 21:09:37 GMT 33.045410 -118.038376 16,050 295 343 128
2018-10-16 21:09:33 GMT 33.042618 -118.031288 15,950 297 364 -704
2018-10-16 21:09:30 GMT 33.040871 -118.026962 15,975 297 358 384
2018-10-16 21:09:22 GMT 33.034561 -118.011894 15,950 297 363 -512
2018-10-16 21:09:17 GMT 33.031979 -118.005829 15,975 297 364 -1280
2018-10-16 21:09:09 GMT 33.025322 -117.990585 16,125 298 359 0
2018-10-16 21:09:06 GMT 33.023087 -117.985542 16,150 299 358 192
2018-10-16 21:09:00 GMT 33.017639 -117.973602 16,075 298 359 128
2018-10-16 21:08:54 GMT 33.014053 -117.965096 16,050 296 360 640
2018-10-16 21:08:51 GMT 33.010845 -117.956558 16,025 295 360 0
2018-10-16 21:08:45 GMT 33.001812 -117.939522 15,975 306 355 256
2018-10-16 21:08:40 GMT 33.001812 -117.939522 16,025 318 352 384
2018-10-16 21:08:34 GMT 32.995529 -117.933075 15,975 337 354 256
2018-10-16 21:08:28 GMT 32.985241 -117.927635 15,950 351 358 64
2018-10-16 21:08:24 GMT 32.977325 -117.926346 15,950 356 360 0
2018-10-16 21:08:18 GMT 32.969238 -117.927467 16,000 40 385 192
2018-10-16 21:08:13 GMT 32.959671 -117.932190 16,025 29 377 256
2018-10-16 21:08:08 GMT 32.952713 -117.937904 15,950 40 385 192
2018-10-16 21:08:01 GMT 32.945023 -117.946915 15,950 54 395 -384
2018-10-16 21:07:57 GMT 32.939758 -117.955811 15,975 60 401 -512
2018-10-16 21:07:50 GMT 32.935104 -117.967712 16,050 70 411 -1024
2018-10-16 21:07:46 GMT 32.932076 -117.978195 16,150 72 414 -1472
2018-10-16 21:07:41 GMT 32.929779 -117.986954 16,225 73 415 -384
2018-10-16 21:07:38 GMT 32.927628 -117.995689 16,250 74 415 384
2018-10-16 21:07:34 GMT 32.925476 -118.004478 16,250 74 416 576
2018-10-16 21:07:31 GMT 32.923965 -118.011124 16,200 74 418 640
2018-10-16 21:07:28 GMT 32.922161 -118.018890 16,200 85 424 384
2018-10-16 21:07:24 GMT 32.920761 -118.025352 16,175 75 419 -64
2018-10-16 21:07:21 GMT 32.919022 -118.033371 16,200 76 419 256
2018-10-16 21:07:16 GMT 32.917133 -118.042549 16,175 76 418 64
2018-10-16 21:07:13 GMT 32.915588 -118.050896 16,150 77 419 512
2018-10-16 21:07:09 GMT 32.914062 -118.059418 16,125 78 420 0
2018-10-16 21:07:02 GMT 32.912750 -118.074242 16,100 90 428 448
2018-10-16 21:06:59 GMT 32.913364 -118.084869 16,075 97 432 -448
2018-10-16 21:06:55 GMT 32.914673 -118.093033 16,100 104 436 -64
2018-10-16 21:06:52 GMT 32.916111 -118.098824 16,100 111 441 -64
2018-10-16 21:06:48 GMT 32.918671 -118.105995 16,100 117 444 448
2018-10-16 21:06:43 GMT 32.924652 -118.117477 15,950 128 452 960
2018-10-16 21:06:34 GMT 32.939106 -118.134644 15,950 143 463 128
2018-10-16 21:06:31 GMT 32.945663 -118.139999 15,975 148 464 -1408
2018-10-16 21:06:28 GMT 32.950516 -118.143295 16,025 153 464 -640
2018-10-16 21:06:22 GMT 32.961124 -118.148880 16,125 160 462 -256
2018-10-16 21:06:19 GMT 32.966572 -118.151176 16,125 161 459 960
2018-10-16 21:06:16 GMT 32.974045 -118.154167 16,125 161 459 960
2018-10-16 21:06:09 GMT 32.987915 -118.159332 15,925 163 462 1280
2018-10-16 21:05:59 GMT 33.009960 -118.165359 15,825 172 464 0
2018-10-16 21:05:56 GMT 33.016113 -118.166420 15,825 185 464 -128
2018-10-16 21:05:50 GMT 33.028160 -118.167320 15,825 183 463 512
2018-10-16 21:05:47 GMT 33.033279 -118.167130 15,775 183 463 512
2018-10-16 21:05:43 GMT 33.041885 -118.166367 15,775 186 463 -64
2018-10-16 21:05:39 GMT 33.049110 -118.165192 15,800 190 462 -704
2018-10-16 21:05:36 GMT 33.055626 -118.163620 15,825 196 459 -1152
2018-10-16 21:05:31 GMT 33.067520 -118.159058 15,900 198 458 -832
2018-10-16 21:05:28 GMT 33.076904 -118.153564 16,000 213 444 -448
2018-10-16 21:05:25 GMT 33.076904 -118.153564 16,050 214 444 0
2018-10-16 21:05:19 GMT 33.089794 -118.142715 16,050 228 436 0
2018-10-16 21:05:16 GMT 33.094070 -118.137856 16,025 227 437 64
2018-10-16 21:05:12 GMT 33.097412 -118.133408 16,025 238 430 -192
2018-10-16 21:05:08 GMT 33.103592 -118.122086 16,050 249 421 0
2018-10-16 21:05:02 GMT 33.107208 -118.110596 16,050 259 415 128
2018-10-16 21:04:57 GMT 33.108810 -118.100281 16,075 268 410 -192
2018-10-16 21:04:54 GMT 33.109303 -118.091652 16,100 270 409 384
2018-10-16 21:04:49 GMT 33.108837 -118.081390 16,100 274 406 -192
2018-10-16 21:04:46 GMT 33.108089 -118.075226 16,050 287 401 960
2018-10-16 21:04:43 GMT 33.106693 -118.068779 16,050 287 401 960
2018-10-16 21:04:40 GMT 33.105103 -118.063370 16,000 293 400 704
2018-10-16 21:04:36 GMT 33.101341 -118.053810 15,950 299 399 -128
2018-10-16 21:04:32 GMT 33.098969 -118.048592 15,975 300 399 -960
2018-10-16 21:04:29 GMT 33.096085 -118.042435 15,975 300 399 -960
2018-10-16 21:04:23 GMT 33.089890 -118.029709 16,100 301 396 -448
2018-10-16 21:04:20 GMT 33.086243 -118.022446 16,050 302 392 768
2018-10-16 21:04:14 GMT 33.081619 -118.013870 15,900 304 393 832
2018-10-16 21:04:11 GMT 33.077545 -118.006454 15,925 304 393 320
2018-10-16 21:04:04 GMT 33.068802 -117.990250 15,925 303 391 -256
2018-10-16 21:03:59 GMT 33.065495 -117.984085 15,925 303 388 -384
2018-10-16 21:03:56 GMT 33.064224 -117.981735 15,925 303 387 -192
2018-10-16 21:03:53 GMT 33.059875 -117.973885 15,950 307 384 -320
2018-10-16 21:03:47 GMT 33.054462 -117.965813 16,000 313 380 -384
2018-10-16 21:03:43 GMT 33.049393 -117.959709 16,025 318 378 -704
2018-10-16 21:03:38 GMT 33.041702 -117.952568 16,100 328 372 64
2018-10-16 21:03:34 GMT 33.037376 -117.949554 16,100 334 369 1408
2018-10-16 21:03:27 GMT 33.023552 -117.943169 15,850 349 371 1408
2018-10-16 21:03:23 GMT 33.019176 -117.942101 15,800 352 372 896
2018-10-16 21:03:19 GMT 33.009682 -117.941147 15,775 0 376 1216
2018-10-16 21:03:16 GMT 33.001877 -117.941856 15,775 23 374 -384
2018-10-16 21:03:13 GMT 33.001877 -117.941856 15,775 19 374 128
2018-10-16 21:03:05 GMT 32.987915 -117.946472 15,775 26 375 -704
2018-10-16 21:02:55 GMT 32.972076 -117.959053 15,950 44 377 -1280
2018-10-16 21:02:45 GMT 32.962521 -117.973549 16,025 62 377 1472
2018-10-16 21:02:40 GMT 32.958286 -117.983971 15,875 65 378 1216
2018-10-16 21:02:33 GMT 32.954910 -117.999588 15,525 79 381 2752
2018-10-16 21:02:30 GMT 32.954330 -118.003532 15,475 79 379 2880
2018-10-16 21:02:26 GMT 32.953033 -118.011734 15,125 79 376 2560
2018-10-16 21:02:22 GMT 32.951752 -118.020081 14,475 85 375 2816
2018-10-16 21:02:19 GMT 32.951210 -118.025620 14,975 85 375 2816
2018-10-16 21:02:15 GMT 32.950882 -118.034859 14,775 89 374 3008
2018-10-16 21:02:11 GMT 32.952667 -118.057266 14,325 97 372 4672
2018-10-16 21:02:04 GMT 32.952667 -118.057266 14,000 97 371 4928
2018-10-16 21:01:58 GMT 32.954041 -118.068253 13,625 98 375 3584
2018-10-16 21:01:52 GMT 32.955864 -118.082680 13,050 98 367 4096
2018-10-16 21:01:45 GMT 32.957611 -118.096542 12,825 98 367 4480
2018-10-16 21:01:42 GMT 32.958008 -118.099548 12,675 99 367 4352
2018-10-16 21:01:39 GMT 32.958847 -118.105278 12,525 100 367 4672
2018-10-16 21:01:31 GMT 32.961731 -118.124611 11,650 99 367 4928
2018-10-16 21:01:28 GMT 32.962475 -118.129593 11,475 101 366 4864
2018-10-16 21:01:22 GMT 32.964382 -118.141258 11,050 101 367 4864
2018-10-16 21:01:19 GMT 32.965576 -118.148453 10,725 102 368 4864
2018-10-16 21:01:10 GMT 32.968323 -118.163727 10,150 104 369 5056
2018-10-16 21:01:07 GMT 32.969646 -118.169846 9,900 104 369 4800
2018-10-16 21:00:58 GMT 32.973415 -118.187164 9,175 104 370 4480
2018-10-16 21:00:54 GMT 32.975418 -118.196854 8,825 103 369 4160
2018-10-16 21:00:50 GMT 32.976582 -118.202972 8,600 102 366 4800
2018-10-16 21:00:46 GMT 32.978306 -118.212837 8,175 102 367 4480
2018-10-16 21:00:43 GMT 32.979050 -118.216759 8,000 101 365 4928
2018-10-16 21:00:38 GMT 32.981049 -118.227226 7,625 104 364 4608
2018-10-16 21:00:33 GMT 32.983154 -118.237335 7,125 104 364 4480
2018-10-16 21:00:22 GMT 32.988098 -118.257217 6,425 107 361 6016
2018-10-16 21:00:16 GMT 32.991119 -118.270462 5,750 104 366 5504
2018-10-16 21:00:12 GMT 32.992813 -118.277657 5,400 106 374 1600
2018-10-16 21:00:01 GMT 32.998089 -118.298592 5,125 106 364 0
2018-10-16 20:59:53 GMT 33.002151 -118.316055 5,050 105 357 512
2018-10-16 20:59:44 GMT 33.005535 -118.330322 4,975 105 359 384
2018-10-16 20:59:41 GMT 33.006886 -118.336037 4,950 106 360 704
2018-10-16 20:59:33 GMT 33.011311 -118.354034 4,875 106 363 0
2018-10-16 20:59:24 GMT 33.015823 -118.372139 4,925 106 364 -896
2018-10-16 20:59:21 GMT 33.016479 -118.374832 4,950 105 363 -960
2018-10-16 20:59:12 GMT 33.020416 -118.391914 5,075 105 359 -448
2018-10-16 20:59:09 GMT 33.022064 -118.398727 5,075 106 357 448
2018-10-16 20:59:00 GMT 33.026718 -118.416641 5,000 106 360 576
2018-10-16 20:58:49 GMT 33.031586 -118.436081 4,900 106 361 576
2018-10-16 20:58:44 GMT 33.033840 -118.445282 4,850 106 362 64
2018-10-16 20:58:39 GMT 33.036308 -118.455429 4,875 106 362 64
2018-10-16 20:58:30 GMT 33.045944 -118.496742 4,850 105 359 128
2018-10-16 20:58:17 GMT 33.045944 -118.496742 4,850 105 358 0
2018-10-16 20:58:07 GMT 33.050446 -118.517380 4,875 104 356 704
2018-10-16 20:57:58 GMT 33.054649 -118.537605 4,750 103 357 768
2018-10-16 20:57:25 GMT 33.066288 -118.598480 4,150 101 353 3456
2018-10-16 20:56:03 GMT 33.017990 -118.602028 350 248 275 1600
2018-10-16 20:55:59 GMT 33.020416 -118.594887 225 248 245 832
2018-10-16 20:55:48 GMT 33.025177 -118.581535 175 247 204 -64
2018-10-16 20:55:37 GMT 33.028954 -118.570847 400 248 196 -3072
2018-10-16 20:54:09 GMT 33.001602 -118.580551 4,725 253 241 -128
2018-10-16 20:53:50 GMT 33.027695 -118.578804 5,725 253 241 -128
2018-10-16 20:53:41 GMT 33.030716 -118.575882 5,800 225 242 -640
2018-10-16 20:53:38 GMT 33.032677 -118.573311 5,825 232 242 -448
2018-10-16 20:53:26 GMT 33.038818 -118.558464 5,825 250 241 256
2018-10-16 20:53:18 GMT 33.041988 -118.547356 5,775 254 238 256
2018-10-16 20:53:13 GMT 33.043522 -118.541580 5,825 254 239 576
2018-10-16 20:53:07 GMT 33.045479 -118.533737 5,775 258 242 0
2018-10-16 20:52:52 GMT 33.049301 -118.515564 5,725 257 243 -128
2018-10-16 20:52:49 GMT 33.050972 -118.510422 5,725 246 237 192
2018-10-16 20:52:42 GMT 33.054337 -118.501610 5,700 246 239 192
2018-10-16 20:52:35 GMT 33.057266 -118.493645 5,675 248 230 128
2018-10-16 20:52:23 GMT 33.061935 -118.479256 5,675 252 222 0
2018-10-16 20:52:18 GMT 33.063259 -118.474319 5,675 253 221 192
2018-10-16 20:52:12 GMT 33.064774 -118.468651 5,650 254 222 192
2018-10-16 20:52:06 GMT 33.067032 -118.459579 5,650 259 233 -64
2018-10-16 20:52:01 GMT 33.068054 -118.454811 5,625 256 223 64
2018-10-16 20:51:52 GMT 33.070496 -118.442947 5,600 258 230 -64
2018-10-16 20:51:40 GMT 33.072849 -118.429482 5,600 259 233 -128
2018-10-16 20:51:35 GMT 33.074295 -118.421249 5,625 258 237 -64
2018-10-16 20:51:30 GMT 33.075272 -118.416252 5,625 257 239 -192
2018-10-16 20:51:24 GMT 33.077133 -118.407074 5,650 259 244 -64
2018-10-16 20:51:18 GMT 33.078716 -118.398819 5,650 259 244 -64
2018-10-16 20:51:07 GMT 33.080486 -118.386314 5,650 263 258 -64
2018-10-16 20:50:58 GMT 33.081650 -118.372864 5,650 268 275 256
2018-10-16 20:50:47 GMT 33.082302 -118.353920 5,625 271 292 256
2018-10-16 20:50:35 GMT 33.081757 -118.336044 5,600 275 305 64
2018-10-16 20:50:26 GMT 33.080154 -118.319626 5,725 280 324 -2688
2018-10-16 20:50:17 GMT 33.077866 -118.305283 6,825 284 320 -3520
2018-10-16 20:50:14 GMT 33.077042 -118.300949 6,275 284 320 -3520
2018-10-16 20:50:07 GMT 33.073410 -118.286263 6,750 303 317 -3328
2018-10-16 20:50:03 GMT 33.072372 -118.282822 6,825 295 319 -3584
2018-10-16 20:49:54 GMT 33.065125 -118.265800 7,400 303 317 -3328
2018-10-16 20:49:41 GMT 33.053879 -118.247604 8,050 308 325 -2880
2018-10-16 20:49:31 GMT 33.044815 -118.235245 8,525 315 330 -3008
2018-10-16 20:49:21 GMT 33.033691 -118.221848 9,000 314 340 -2560
2018-10-16 20:49:12 GMT 33.021179 -118.206223 9,500 313 354 -2816
2018-10-16 20:48:59 GMT 33.009384 -118.191246 10,025 316 368 -4608
2018-10-16 20:48:48 GMT 32.995667 -118.175842 10,950 320 372 -4864
2018-10-16 20:48:36 GMT 32.979187 -118.159805 12,025 324 374 -6208
2018-10-16 20:48:26 GMT 32.964752 -118.147743 13,175 326 364 -5888
2018-10-16 20:48:18 GMT 32.953400 -118.138733 13,750 330 364 -768
2018-10-16 20:48:14 GMT 32.949070 -118.135597 13,800 329 364 -896
2018-10-16 20:48:05 GMT 32.933941 -118.125732 13,900 335 366 -448
2018-10-16 20:47:57 GMT 32.922535 -118.119392 13,950 336 367 -448
2018-10-16 20:47:54 GMT 32.916622 -118.116203 14,000 335 368 -320
2018-10-16 20:47:48 GMT 32.909729 -118.112198 14,025 333 368 -448
2018-10-16 20:47:42 GMT 32.900608 -118.106728 14,075 339 367 -384
2018-10-16 20:47:39 GMT 32.894714 -118.103523 14,075 337 367 -64
2018-10-16 20:47:31 GMT 32.883270 -118.098190 14,075 342 367 -640
2018-10-16 20:47:28 GMT 32.876495 -118.095612 14,150 345 365 -640
2018-10-16 20:47:22 GMT 32.866608 -118.092918 14,250 351 362 -256
2018-10-16 20:47:11 GMT 32.848843 -118.090134 14,250 353 361 0
2018-10-16 20:47:01 GMT 32.830826 -118.087555 14,250 355 361 128
2018-10-16 20:46:58 GMT 32.825684 -118.087044 14,250 356 362 128
2018-10-16 20:46:55 GMT 32.823330 -118.086884 14,225 357 362 512
2018-10-16 20:46:50 GMT 32.812717 -118.086937 14,000 1 364 896
2018-10-16 20:46:44 GMT 32.804443 -118.087265 14,100 1 366 1216
2018-10-16 20:46:37 GMT 32.792328 -118.087723 13,950 4 373 640
2018-10-16 20:46:27 GMT 32.774406 -118.089462 13,750 6 377 704
2018-10-16 20:46:23 GMT 32.767796 -118.090416 13,750 7 380 1024
2018-10-16 20:46:17 GMT 32.756111 -118.092155 13,625 7 382 896
2018-10-16 20:46:10 GMT 32.746262 -118.093910 13,600 10 385 704
2018-10-16 20:46:04 GMT 32.733067 -118.097145 13,525 17 390 -1216
2018-10-16 20:45:55 GMT 32.716774 -118.102692 13,625 21 384 192
2018-10-16 20:45:42 GMT 32.695724 -118.112419 13,725 21 385 -64
2018-10-16 20:45:30 GMT 32.676544 -118.120934 13,725 19 384 192
2018-10-16 20:45:21 GMT 32.662674 -118.125931 13,900 23 386 192
2018-10-16 20:45:10 GMT 32.642616 -118.133743 13,900 21 385 -128
2018-10-16 20:44:58 GMT 32.622272 -118.144112 13,850 27 388 384
2018-10-16 20:44:50 GMT 32.609344 -118.152191 13,800 30 391 320
2018-10-16 20:44:39 GMT 32.592106 -118.164627 13,750 34 395 -256
2018-10-16 20:44:36 GMT 32.589081 -118.167038 13,775 37 396 -448
2018-10-16 20:44:28 GMT 32.576981 -118.177681 13,875 41 397 128
2018-10-16 20:44:23 GMT 32.571121 -118.183228 13,850 40 395 320
2018-10-16 20:44:14 GMT 32.558487 -118.196083 13,825 41 396 0
2018-10-16 20:44:08 GMT 32.546021 -118.209023 13,850 41 397 128
2018-10-16 20:44:05 GMT 32.546021 -118.209023 13,825 41 397 256
2018-10-16 20:44:02 GMT 32.539551 -118.215805 13,800 41 398 -128
2018-10-16 20:43:56 GMT 32.532475 -118.223038 13,800 41 398 128
2018-10-16 20:43:50 GMT 32.524700 -118.231163 13,800 41 397 64
2018-10-16 20:43:41 GMT 32.511841 -118.244530 13,775 41 398 448
2018-10-16 20:43:32 GMT 32.498444 -118.258240 13,750 40 398 0
2018-10-16 20:43:28 GMT 32.494022 -118.262497 13,775 39 397 -448
2018-10-16 20:43:23 GMT 32.487225 -118.269112 13,850 39 394 -384
2018-10-16 20:43:20 GMT 32.481171 -118.275017 13,850 39 392 -256
2018-10-16 20:43:11 GMT 32.470421 -118.285202 13,875 38 389 -512
2018-10-16 20:43:08 GMT 32.464508 -118.290787 13,925 38 388 -128
2018-10-16 20:43:03 GMT 32.457569 -118.297195 13,950 37 387 -128
2018-10-16 20:42:57 GMT 32.449173 -118.304848 13,950 37 387 64
2018-10-16 20:42:50 GMT 32.440018 -118.313087 13,925 37 387 320
2018-10-16 20:42:46 GMT 32.434341 -118.318253 13,950 37 386 576
2018-10-16 20:42:36 GMT 32.418549 -118.332588 13,850 37 389 512
2018-10-16 20:42:30 GMT 32.410786 -118.339569 13,775 36 390 576
2018-10-16 20:42:19 GMT 32.394424 -118.354118 13,800 37 391 -320
2018-10-16 20:42:12 GMT 32.386047 -118.361649 13,825 38 391 -192
2018-10-16 20:42:09 GMT 32.380646 -118.366699 13,850 38 391 -192
2018-10-16 20:41:56 GMT 32.362370 -118.383904 13,925 38 389 -256
2018-10-16 20:41:49 GMT 32.352585 -118.392899 13,975 37 386 320
2018-10-16 20:41:46 GMT 32.347458 -118.397568 13,950 37 386 192
2018-10-16 20:41:38 GMT 32.336563 -118.407242 13,875 36 388 256
2018-10-16 20:41:33 GMT 32.330669 -118.412491 13,900 37 388 -128
2018-10-16 20:41:27 GMT 32.321918 -118.419891 13,825 30 387 -1152
2018-10-16 20:41:16 GMT 32.303238 -118.433662 13,875 30 387 -1152
2018-10-16 20:40:57 GMT 32.272293 -118.436295 13,875 359 382 448
2018-10-16 20:40:53 GMT 32.265244 -118.431900 13,900 316 388 896
2018-10-16 20:40:42 GMT 32.252563 -118.416245 13,850 311 388 -704
2018-10-16 20:40:32 GMT 32.239288 -118.397842 14,000 312 383 -256
2018-10-16 20:40:19 GMT 32.224670 -118.378410 14,050 311 381 64
2018-10-16 20:40:11 GMT 32.214615 -118.364792 14,025 312 379 -576
2018-10-16 20:39:49 GMT 32.189621 -118.331490 13,950 324 378 -1024
2018-10-16 20:39:37 GMT 32.172020 -118.325218 14,000 49 400 448
2018-10-16 20:39:27 GMT 32.156097 -118.336769 13,925 20 384 448
2018-10-16 20:39:23 GMT 32.152699 -118.343102 14,025 59 406 -576
2018-10-16 20:39:17 GMT 32.149658 -118.360710 13,925 93 425 704
2018-10-16 20:38:45 GMT 32.199436 -118.402016 13,800 171 452 64
2018-10-16 20:38:32 GMT 32.222900 -118.405975 13,775 171 450 -512
2018-10-16 20:38:23 GMT 32.247940 -118.410591 13,725 168 442 768
2018-10-16 20:38:10 GMT 32.266987 -118.415466 13,800 168 440 896
2018-10-16 20:38:00 GMT 32.287857 -118.420258 13,675 168 440 512
2018-10-16 20:37:57 GMT 32.294449 -118.421799 13,650 175 433 768
2018-10-16 20:37:51 GMT 32.307724 -118.423607 13,650 176 435 448
2018-10-16 20:37:38 GMT 32.331600 -118.425949 13,550 172 432 -576
2018-10-16 20:37:28 GMT 32.351898 -118.424599 13,700 206 433 -960
2018-10-16 20:37:19 GMT 32.365311 -118.408279 13,800 257 412 128
2018-10-16 20:37:07 GMT 32.365398 -118.385086 13,700 295 396 384
2018-10-16 20:36:57 GMT 32.353947 -118.364960 13,675 312 387 -448
2018-10-16 20:36:45 GMT 32.340725 -118.347305 13,775 312 382 -1024
2018-10-16 20:36:28 GMT 32.321125 -118.321350 13,875 312 377 320
2018-10-16 20:36:18 GMT 32.308182 -118.304352 13,800 312 376 320
2018-10-16 20:36:15 GMT 32.305950 -118.301514 13,775 313 375 64
2018-10-16 20:36:10 GMT 32.300316 -118.294220 13,750 313 375 192
2018-10-16 20:36:04 GMT 32.292126 -118.283234 13,775 311 374 -64
2018-10-16 20:35:52 GMT 32.278484 -118.264572 13,800 309 363 768
2018-10-16 20:35:47 GMT 32.273270 -118.257507 13,825 312 371 -192
2018-10-16 20:35:40 GMT 32.264557 -118.245796 13,800 312 371 128
2018-10-16 20:35:30 GMT 32.255116 -118.233124 13,775 312 370 -576
2018-10-16 20:35:24 GMT 32.248550 -118.224266 13,800 309 362 704
2018-10-16 20:35:16 GMT 32.239334 -118.211823 13,825 311 367 -1152
2018-10-16 20:35:08 GMT 32.230488 -118.199211 13,950 309 364 448
2018-10-16 20:35:03 GMT 32.225235 -118.191467 13,925 309 362 704
2018-10-16 20:34:58 GMT 32.219177 -118.182457 13,850 309 363 384
2018-10-16 20:34:47 GMT 32.206696 -118.163948 13,825 309 362 -192
2018-10-16 20:34:40 GMT 32.201019 -118.155655 13,850 309 361 -704
2018-10-16 20:34:37 GMT 32.196808 -118.149551 13,850 309 359 384
2018-10-16 20:34:30 GMT 32.191105 -118.141197 13,850 311 355 576
2018-10-16 20:34:26 GMT 32.185638 -118.133621 13,825 311 357 -320
2018-10-16 20:34:17 GMT 32.176163 -118.120712 13,875 311 353 896
2018-10-16 20:34:14 GMT 32.172390 -118.115585 13,825 311 353 -256
2018-10-16 20:34:03 GMT 32.159588 -118.103760 14,300 96 431 1664
2018-10-16 20:33:51 GMT 32.144165 -118.116760 14,300 96 431 1664
2018-10-16 20:33:42 GMT 32.146545 -118.139389 14,100 117 444 2176
2018-10-16 20:33:31 GMT 32.158939 -118.161263 13,950 124 452 384
2018-10-16 20:33:25 GMT 32.166107 -118.173485 13,950 124 455 448
2018-10-16 20:33:21 GMT 32.170898 -118.181908 13,950 123 456 -384
2018-10-16 20:33:14 GMT 32.183891 -118.204933 14,050 127 451 0
2018-10-16 20:33:10 GMT 32.183891 -118.204933 14,050 123 456 -576
2018-10-16 20:33:02 GMT 32.197159 -118.227692 14,075 124 454 -256
2018-10-16 20:32:59 GMT 32.197159 -118.227692 14,025 124 456 192
2018-10-16 20:32:49 GMT 32.209072 -118.247925 14,025 124 454 -576
2018-10-16 20:32:38 GMT 32.222576 -118.269279 13,925 127 450 896
2018-10-16 20:32:15 GMT 32.261585 -118.296463 13,900 201 470 1728
2018-10-16 20:32:11 GMT 32.268616 -118.292374 13,775 216 468 64
2018-10-16 20:32:06 GMT 32.278439 -118.284019 13,775 219 466 0
2018-10-16 20:31:56 GMT 32.294125 -118.270233 13,775 218 468 384
2018-10-16 20:31:47 GMT 32.311249 -118.254532 13,725 218 469 256
2018-10-16 20:31:40 GMT 32.320679 -118.245796 13,700 219 470 256
2018-10-16 20:31:35 GMT 32.329193 -118.237442 13,675 221 469 576
2018-10-16 20:31:31 GMT 32.337982 -118.228600 13,650 221 470 256
2018-10-16 20:31:24 GMT 32.347847 -118.218834 13,650 220 472 -64
2018-10-16 20:31:20 GMT 32.356922 -118.209923 13,650 220 471 -64
2018-10-16 20:31:15 GMT 32.365723 -118.201408 13,675 220 471 -448
2018-10-16 20:31:10 GMT 32.371727 -118.195457 13,700 220 471 -512
2018-10-16 20:31:04 GMT 32.383530 -118.183998 13,750 220 469 -64
2018-10-16 20:31:01 GMT 32.387230 -118.180435 13,750 220 469 128
2018-10-16 20:30:50 GMT 32.406082 -118.162331 13,725 220 467 64
2018-10-16 20:30:43 GMT 32.419739 -118.149277 13,725 220 467 -64
2018-10-16 20:30:40 GMT 32.424454 -118.144829 13,700 219 467 128
2018-10-16 20:30:28 GMT 32.442535 -118.127861 13,700 219 465 0
2018-10-16 20:30:18 GMT 32.459976 -118.112038 13,700 218 463 -192
2018-10-16 20:30:10 GMT 32.475403 -118.097916 13,650 218 461 768
2018-10-16 20:30:07 GMT 32.479294 -118.094345 13,650 219 460 448
2018-10-16 20:29:57 GMT 32.496918 -118.077980 13,550 219 461 192
2018-10-16 20:29:46 GMT 32.514782 -118.061096 13,500 221 458 128
2018-10-16 20:29:34 GMT 32.533035 -118.043480 13,375 221 458 128
2018-10-16 20:29:24 GMT 32.549927 -118.026619 13,400 157 458 -320
2018-10-16 20:29:17 GMT 32.561893 -118.017159 13,400 207 460 -640
2018-10-16 20:29:13 GMT 32.570618 -118.013107 13,450 195 462 -448
2018-10-16 20:29:06 GMT 32.585728 -118.011833 13,500 172 462 576
2018-10-16 20:29:03 GMT 32.593460 -118.014038 13,400 161 462 1280
2018-10-16 20:28:54 GMT 32.609142 -118.021530 13,175 156 465 768
2018-10-16 20:28:51 GMT 32.616035 -118.025002 13,175 157 466 -256
2018-10-16 20:28:45 GMT 32.626972 -118.030495 13,125 156 465 -192
2018-10-16 20:28:40 GMT 32.635941 -118.035019 13,125 156 465 0
2018-10-16 20:28:35 GMT 32.648388 -118.041534 13,100 156 464 320
2018-10-16 20:28:31 GMT 32.657047 -118.046021 13,100 156 465 0
2018-10-16 20:28:27 GMT 32.663982 -118.049606 13,100 156 464 -704
2018-10-16 20:28:24 GMT 32.670090 -118.052711 13,150 156 463 -192
2018-10-16 20:28:20 GMT 32.677761 -118.056725 13,175 157 453 -448
2018-10-16 20:28:13 GMT 32.689774 -118.062820 13,225 157 458 -320
2018-10-16 20:28:07 GMT 32.701492 -118.068695 13,250 157 456 -320
2018-10-16 20:28:03 GMT 32.710861 -118.073265 13,275 157 453 -256
2018-10-16 20:27:59 GMT 32.717659 -118.076515 13,300 158 450 -320
2018-10-16 20:27:56 GMT 32.723289 -118.079208 13,300 158 450 -320
2018-10-16 20:27:53 GMT 32.730240 -118.082481 13,300 157 449 -192
2018-10-16 20:27:49 GMT 32.738281 -118.086380 13,325 157 443 -64
2018-10-16 20:27:46 GMT 32.742096 -118.088196 13,325 157 443 -64
2018-10-16 20:27:43 GMT 32.746845 -118.090469 13,325 157 443 0
2018-10-16 20:27:40 GMT 32.752571 -118.093277 13,325 157 443 256
2018-10-16 20:27:33 GMT 32.766632 -118.099998 13,300 158 442 0
2018-10-16 20:27:30 GMT 32.772125 -118.102646 13,300 158 441 -64
2018-10-16 20:27:23 GMT 32.788322 -118.110199 13,325 158 440 -64
2018-10-16 20:27:20 GMT 32.793072 -118.112442 13,325 158 440 -320
2018-10-16 20:27:12 GMT 32.807098 -118.118958 13,350 157 439 -192
2018-10-16 20:27:08 GMT 32.814022 -118.122421 13,375 157 438 256
2018-10-16 20:27:05 GMT 32.827148 -118.129036 13,350 156 439 128
2018-10-16 20:27:01 GMT 32.827148 -118.129036 13,350 156 439 256
2018-10-16 20:26:56 GMT 32.835571 -118.133293 13,325 156 440 128
2018-10-16 20:26:53 GMT 32.844360 -118.137802 13,300 156 440 256
2018-10-16 20:26:50 GMT 32.848843 -118.140190 13,325 156 440 -64
2018-10-16 20:26:47 GMT 32.855392 -118.143623 13,325 156 440 -128
2018-10-16 20:26:43 GMT 32.860245 -118.146149 13,350 156 441 -128
2018-10-16 20:26:40 GMT 32.867184 -118.149719 13,350 156 440 -640
2018-10-16 20:26:34 GMT 32.876999 -118.154991 13,400 154 438 -192
2018-10-16 20:26:31 GMT 32.882126 -118.157959 13,400 153 437 384
2018-10-16 20:26:26 GMT 32.893391 -118.165024 13,350 149 436 448
2018-10-16 20:26:23 GMT 32.899677 -118.169502 13,350 147 436 256
2018-10-16 20:26:18 GMT 32.906334 -118.174942 13,325 141 435 512
2018-10-16 20:26:14 GMT 32.911835 -118.180153 13,325 140 433 128
2018-10-16 20:26:11 GMT 32.917877 -118.186096 13,300 140 433 384
2018-10-16 20:26:03 GMT 32.929001 -118.197067 13,250 140 434 704
2018-10-16 20:25:58 GMT 32.936455 -118.204315 13,200 140 433 320
2018-10-16 20:25:54 GMT 32.943855 -118.211655 13,200 140 432 -512
2018-10-16 20:25:48 GMT 32.951981 -118.219757 13,250 140 429 -768
2018-10-16 20:25:45 GMT 32.956375 -118.224159 13,275 139 427 -640
2018-10-16 20:25:42 GMT 32.960289 -118.228134 13,300 139 426 -1088
2018-10-16 20:25:38 GMT 32.967690 -118.235817 13,375 138 417 -320
2018-10-16 20:25:34 GMT 32.972626 -118.240974 13,400 138 417 -320
2018-10-16 20:25:31 GMT 32.979004 -118.247589 13,400 138 414 384
2018-10-16 20:25:28 GMT 32.981735 -118.250519 13,350 138 414 704
2018-10-16 20:25:25 GMT 32.987000 -118.256119 13,350 137 413 576
2018-10-16 20:25:20 GMT 32.992687 -118.262276 13,325 134 408 704
2018-10-16 20:25:17 GMT 32.998444 -118.268646 13,275 135 413 -512
2018-10-16 20:25:14 GMT 33.002060 -118.272713 13,300 135 409 192
2018-10-16 20:25:10 GMT 33.006958 -118.278427 13,325 135 410 256
2018-10-16 20:25:06 GMT 33.014103 -118.286827 13,300 135 408 512
2018-10-16 20:25:00 GMT 33.021549 -118.295738 13,225 135 405 448
2018-10-16 20:24:55 GMT 33.027740 -118.302856 13,225 137 404 192
2018-10-16 20:24:52 GMT 33.031448 -118.306931 13,175 138 400 128
2018-10-16 20:24:48 GMT 33.035843 -118.311714 13,200 138 400 192
2018-10-16 20:24:43 GMT 33.044769 -118.321053 13,150 139 398 512
2018-10-16 20:24:40 GMT 33.047386 -118.323761 13,150 138 394 128
2018-10-16 20:24:34 GMT 33.057072 -118.333687 13,100 139 391 0
2018-10-16 20:24:28 GMT 33.065262 -118.341415 13,150 142 386 -192
2018-10-16 20:24:23 GMT 33.071274 -118.347031 13,175 139 379 64
2018-10-16 20:24:17 GMT 33.079693 -118.355545 13,175 139 373 -640
2018-10-16 20:24:12 GMT 33.087280 -118.363220 13,175 140 367 -576
2018-10-16 20:24:06 GMT 33.093845 -118.369499 13,225 142 360 64
2018-10-16 20:24:00 GMT 33.101013 -118.375893 13,225 145 355 320
2018-10-16 20:23:55 GMT 33.107998 -118.381554 13,200 145 357 512
2018-10-16 20:23:51 GMT 33.114624 -118.386803 13,150 149 362 192
2018-10-16 20:23:47 GMT 33.121353 -118.391418 13,175 150 363 256
2018-10-16 20:23:44 GMT 33.123547 -118.392876 13,175 151 364 0
2018-10-16 20:23:39 GMT 33.133072 -118.398613 13,150 155 369 256
2018-10-16 20:23:35 GMT 33.140213 -118.402512 13,125 157 372 128
2018-10-16 20:23:29 GMT 33.149010 -118.406891 13,125 158 373 0
2018-10-16 20:23:24 GMT 33.156879 -118.410141 13,125 162 375 448
2018-10-16 20:23:16 GMT 33.169449 -118.413956 13,050 167 380 896
2018-10-16 20:23:13 GMT 33.177338 -118.415588 13,000 171 386 832
2018-10-16 20:23:08 GMT 33.183426 -118.416580 12,950 172 389 384
2018-10-16 20:23:05 GMT 33.189697 -118.417427 12,925 174 391 192
2018-10-16 20:22:59 GMT 33.201756 -118.418327 12,925 178 397 0
2018-10-16 20:22:55 GMT 33.209900 -118.418434 12,900 181 400 448
2018-10-16 20:22:51 GMT 33.213627 -118.418381 12,850 183 402 704
2018-10-16 20:22:48 GMT 33.229359 -118.417038 12,775 187 412 64
2018-10-16 20:22:43 GMT 33.229359 -118.417038 12,775 186 411 64
2018-10-16 20:22:40 GMT 33.235245 -118.416306 12,800 187 414 -512
2018-10-16 20:22:35 GMT 33.248028 -118.414566 12,800 187 416 -320
2018-10-16 20:22:32 GMT 33.249756 -118.414322 12,825 187 416 -320
2018-10-16 20:22:29 GMT 33.257034 -118.413223 12,850 188 416 -256
2018-10-16 20:22:24 GMT 33.265297 -118.411934 12,875 188 418 -128
2018-10-16 20:22:21 GMT 33.273193 -118.410645 12,900 188 421 -320
2018-10-16 20:22:18 GMT 33.277084 -118.409988 12,900 189 421 -512
2018-10-16 20:22:15 GMT 33.285233 -118.408554 13,050 177 427 -448
2018-10-16 20:22:12 GMT 33.291046 -118.407570 12,975 188 424 -1600
2018-10-16 20:22:08 GMT 33.297684 -118.406631 13,025 186 425 -960
2018-10-16 20:22:04 GMT 33.306793 -118.406418 13,100 176 427 -576
2018-10-16 20:22:00 GMT 33.312504 -118.406944 13,150 160 430 960
2018-10-16 20:21:56 GMT 33.320938 -118.408615 13,150 168 429 320
2018-10-16 20:21:52 GMT 33.328468 -118.410866 13,150 163 430 384
2018-10-16 20:21:49 GMT 33.340202 -118.415405 13,125 161 430 896
2018-10-16 20:21:46 GMT 33.340202 -118.415405 13,100 160 430 704
2018-10-16 20:21:42 GMT 33.347855 -118.419052 13,075 155 433 0
2018-10-16 20:21:37 GMT 33.356873 -118.424271 13,075 151 433 192
2018-10-16 20:21:34 GMT 33.360916 -118.427010 13,050 148 432 -640
2018-10-16 20:21:29 GMT 33.370880 -118.434975 13,100 137 431 128
2018-10-16 20:21:26 GMT 33.374649 -118.438560 13,100 137 431 128
2018-10-16 20:21:20 GMT 33.383423 -118.448601 13,100 132 429 448
2018-10-16 20:21:16 GMT 33.389359 -118.456886 13,075 129 429 64
2018-10-16 20:21:10 GMT 33.397320 -118.468437 13,075 128 427 64
2018-10-16 20:21:07 GMT 33.401043 -118.473984 13,050 128 426 64
2018-10-16 20:20:59 GMT 33.410866 -118.488670 13,050 128 424 768
2018-10-16 20:20:56 GMT 33.414185 -118.493645 13,000 128 424 0
2018-10-16 20:20:50 GMT 33.420132 -118.502686 12,975 128 424 128
2018-10-16 20:20:47 GMT 33.425125 -118.510239 12,975 128 423 256
2018-10-16 20:20:43 GMT 33.429245 -118.516495 12,950 128 423 320
2018-10-16 20:20:37 GMT 33.437820 -118.528969 12,925 129 421 256
2018-10-16 20:20:32 GMT 33.443985 -118.537704 12,900 129 420 256
2018-10-16 20:20:29 GMT 33.447086 -118.542145 12,900 130 420 256
2018-10-16 20:20:24 GMT 33.454441 -118.552399 12,875 131 418 128
2018-10-16 20:20:21 GMT 33.456345 -118.555008 12,875 131 418 64
2018-10-16 20:20:18 GMT 33.461746 -118.562309 12,875 131 417 -64
2018-10-16 20:20:14 GMT 33.466961 -118.569389 12,875 131 413 128
2018-10-16 20:20:11 GMT 33.469391 -118.572639 12,875 131 411 0
2018-10-16 20:20:04 GMT 33.478832 -118.585472 12,900 131 408 -768
2018-10-16 20:20:01 GMT 33.483215 -118.591423 12,925 131 406 -704
2018-10-16 20:19:53 GMT 33.493263 -118.604980 13,000 131 400 64
2018-10-16 20:19:49 GMT 33.496338 -118.609123 13,025 131 400 64
2018-10-16 20:19:42 GMT 33.506859 -118.623199 13,000 131 402 0
2018-10-16 20:19:39 GMT 33.509720 -118.626968 13,000 132 402 -64
2018-10-16 20:19:31 GMT 33.519470 -118.639877 13,000 131 402 -64
2018-10-16 20:19:28 GMT 33.522446 -118.643829 13,025 131 402 0
2018-10-16 20:19:21 GMT 33.532413 -118.657448 12,975 131 403 128
2018-10-16 20:19:18 GMT 33.535534 -118.661591 12,975 131 405 320
2018-10-16 20:19:11 GMT 33.545776 -118.675407 12,925 131 406 64
2018-10-16 20:19:08 GMT 33.549358 -118.680267 12,925 131 406 64
2018-10-16 20:18:59 GMT 33.560532 -118.695671 12,975 130 409 -1280
2018-10-16 20:18:51 GMT 33.573799 -118.714256 13,075 130 408 -320
2018-10-16 20:18:48 GMT 33.573799 -118.714256 13,075 130 409 448
2018-10-16 20:18:45 GMT 33.577835 -118.720001 13,075 130 410 64
2018-10-16 20:18:39 GMT 33.584976 -118.730087 13,050 129 412 64
2018-10-16 20:18:34 GMT 33.590511 -118.738007 13,000 130 413 576
2018-10-16 20:18:27 GMT 33.600197 -118.751678 12,975 130 416 64
2018-10-16 20:18:23 GMT 33.604710 -118.757973 12,975 130 417 -64
2018-10-16 20:18:15 GMT 33.615143 -118.772575 13,000 130 418 -384
2018-10-16 20:18:05 GMT 33.627476 -118.789619 13,025 131 419 -128
2018-10-16 20:18:02 GMT 33.631165 -118.794716 13,050 131 418 -64
2018-10-16 20:17:54 GMT 33.640274 -118.807053 13,050 131 417 640
2018-10-16 20:17:51 GMT 33.645676 -118.814278 13,025 131 417 640
2018-10-16 20:17:42 GMT 33.656982 -118.829529 12,975 131 419 128
2018-10-16 20:17:39 GMT 33.660294 -118.834129 12,950 130 419 0
2018-10-16 20:17:31 GMT 33.669113 -118.846176 12,925 131 418 192
2018-10-16 20:17:28 GMT 33.674213 -118.853249 12,900 130 419 320
2018-10-16 20:17:25 GMT 33.678680 -118.859367 13,025 131 417 64
2018-10-16 20:17:22 GMT 33.681614 -118.863426 12,900 131 420 -576
2018-10-16 20:17:17 GMT 33.688969 -118.873383 12,975 131 419 -640
2018-10-16 20:17:09 GMT 33.698135 -118.885635 13,025 131 417 64
2018-10-16 20:17:06 GMT 33.703491 -118.892868 13,000 131 413 1344
2018-10-16 20:17:00 GMT 33.709534 -118.901161 12,875 131 411 1792
2018-10-16 20:16:52 GMT 33.720612 -118.916183 12,625 131 410 1600
2018-10-16 20:16:49 GMT 33.723175 -118.919548 12,450 132 406 2048
2018-10-16 20:16:44 GMT 33.731194 -118.929916 12,325 132 404 2368
2018-10-16 20:16:41 GMT 33.734497 -118.934212 12,200 132 404 1984
2018-10-16 20:16:38 GMT 33.737183 -118.937653 12,150 132 402 1536
2018-10-16 20:16:34 GMT 33.743298 -118.945709 12,000 131 396 2304
2018-10-16 20:16:25 GMT 33.754097 -118.960014 11,725 131 389 3840
2018-10-16 20:16:22 GMT 33.757915 -118.965225 11,500 131 390 3456
2018-10-16 20:16:15 GMT 33.766434 -118.976723 10,875 131 389 3840
2018-10-16 20:16:11 GMT 33.770435 -118.982277 10,875 130 389 3904
2018-10-16 20:16:08 GMT 33.774765 -118.988457 10,625 130 393 3200
2018-10-16 20:16:04 GMT 33.777924 -118.992920 10,500 130 394 3200
2018-10-16 20:16:01 GMT 33.782639 -118.999367 10,125 132 396 2880
2018-10-16 20:15:55 GMT 33.790688 -119.009338 9,975 138 398 2944
2018-10-16 20:15:49 GMT 33.799530 -119.018089 9,700 143 400 2176
2018-10-16 20:15:46 GMT 33.802696 -119.020447 9,625 150 402 1856
2018-10-16 20:15:36 GMT 33.822144 -119.027557 9,500 178 402 -128
2018-10-16 20:15:28 GMT 33.836586 -119.023590 9,500 210 392 128
2018-10-16 20:15:23 GMT 33.843979 -119.017082 9,475 226 383 448
2018-10-16 20:15:17 GMT 33.850414 -119.006882 9,475 241 372 960
2018-10-16 20:15:14 GMT 33.853672 -118.998695 9,425 253 367 768
2018-10-16 20:15:06 GMT 33.857071 -118.980644 9,325 268 364 -1152
2018-10-16 20:15:02 GMT 33.857071 -118.974442 9,400 273 360 -1280
2018-10-16 20:14:55 GMT 33.855743 -118.964333 9,500 288 347 -576
2018-10-16 20:14:50 GMT 33.853764 -118.957787 9,550 295 341 -448
2018-10-16 20:14:47 GMT 33.850136 -118.950294 9,575 323 328 128
2018-10-16 20:14:40 GMT 33.842972 -118.942024 9,550 324 326 128
2018-10-16 20:14:35 GMT 33.837517 -118.937073 9,525 323 328 128
2018-10-16 20:14:31 GMT 33.832123 -118.932045 9,525 323 329 128
2018-10-16 20:14:19 GMT 33.817268 -118.918137 9,525 322 330 320
2018-10-16 20:14:15 GMT 33.813812 -118.914841 9,500 322 330 320
2018-10-16 20:14:10 GMT 33.806351 -118.907776 9,475 321 331 0
2018-10-16 20:14:07 GMT 33.803627 -118.905144 9,450 322 329 128
2018-10-16 20:14:04 GMT 33.799343 -118.901024 9,450 322 329 128
2018-10-16 20:14:00 GMT 33.795868 -118.897682 9,450 321 329 -64
2018-10-16 20:13:56 GMT 33.791012 -118.892899 9,450 321 328 0
2018-10-16 20:13:48 GMT 33.780399 -118.882423 9,450 321 331 64
2018-10-16 20:13:44 GMT 33.775417 -118.877502 9,425 321 333 192
2018-10-16 20:13:39 GMT 33.770157 -118.872353 9,425 320 334 128
2018-10-16 20:13:35 GMT 33.765781 -118.867889 9,425 319 335 256
2018-10-16 20:13:27 GMT 33.756134 -118.857834 9,350 319 338 448
2018-10-16 20:13:23 GMT 33.751923 -118.853294 9,350 319 339 256
2018-10-16 20:13:16 GMT 33.742878 -118.843864 9,425 319 338 -256
2018-10-16 20:13:11 GMT 33.738190 -118.838890 9,450 316 338 256
2018-10-16 20:13:05 GMT 33.730179 -118.829971 9,375 316 335 128
2018-10-16 20:13:02 GMT 33.726257 -118.825378 9,450 316 337 -320
2018-10-16 20:12:52 GMT 33.715271 -118.812675 9,125 313 321 64
2018-10-16 20:12:48 GMT 33.712784 -118.809685 9,450 316 328 192
2018-10-16 20:12:41 GMT 33.695389 -118.789001 9,325 315 324 960
2018-10-16 20:12:33 GMT 33.695389 -118.789001 9,200 314 323 -192
2018-10-16 20:12:23 GMT 33.684494 -118.775993 9,125 316 326 704
2018-10-16 20:12:20 GMT 33.680916 -118.771423 9,075 314 323 -192
2018-10-16 20:12:09 GMT 33.671326 -118.758720 9,075 312 319 320
2018-10-16 20:12:03 GMT 33.665554 -118.750648 9,050 311 320 -128
2018-10-16 20:11:59 GMT 33.660805 -118.743958 9,100 311 322 -1152
2018-10-16 20:11:56 GMT 33.659317 -118.741951 9,125 310 323 -704
2018-10-16 20:11:48 GMT 33.647026 -118.724442 9,300 310 322 -960
2018-10-16 20:11:44 GMT 33.647026 -118.724442 9,350 310 323 -704
2018-10-16 20:11:34 GMT 33.637810 -118.711227 9,425 310 324 -640
2018-10-16 20:11:25 GMT 33.614300 -118.675117 9,450 307 332 128
2018-10-16 20:11:14 GMT 33.614300 -118.675117 9,425 307 341 128
2018-10-16 20:11:07 GMT 33.612064 -118.671455 9,425 306 337 448
2018-10-16 20:11:04 GMT 33.609329 -118.667084 9,425 307 341 -128
2018-10-16 20:10:56 GMT 33.601173 -118.654060 9,450 308 349 0
2018-10-16 20:10:53 GMT 33.599121 -118.650833 9,450 308 349 0
2018-10-16 20:10:45 GMT 33.590046 -118.636551 9,450 308 364 -128
2018-10-16 20:10:35 GMT 33.579105 -118.619781 9,500 309 374 -704
2018-10-16 20:10:32 GMT 33.577572 -118.617493 9,500 309 377 -960
2018-10-16 20:10:28 GMT 33.572937 -118.610413 9,575 308 379 -1088
2018-10-16 20:10:22 GMT 33.566208 -118.600159 9,725 309 380 -1728
2018-10-16 20:10:17 GMT 33.561092 -118.592316 9,800 308 380 -1408
2018-10-16 20:10:12 GMT 33.555180 -118.583389 9,925 310 381 64
2018-10-16 20:10:04 GMT 33.546520 -118.570808 9,900 310 382 -512
2018-10-16 20:10:00 GMT 33.542221 -118.564621 9,975 310 381 -896
2018-10-16 20:09:50 GMT 33.530411 -118.547646 10,250 318 343 -512
2018-10-16 20:09:43 GMT 33.523270 -118.537865 10,300 312 363 -960
2018-10-16 20:09:40 GMT 33.518265 -118.531105 10,375 311 362 -832
2018-10-16 20:09:31 GMT 33.510303 -118.519836 10,500 311 356 -1280
2018-10-16 20:09:28 GMT 33.507092 -118.515350 10,575 312 349 -704
2018-10-16 20:09:21 GMT 33.498711 -118.504585 10,700 316 343 -768
2018-10-16 20:09:17 GMT 33.495026 -118.500458 10,750 319 341 -576
2018-10-16 20:09:14 GMT 33.490311 -118.495735 10,775 324 337 -2048
2018-10-16 20:09:10 GMT 33.484512 -118.491020 10,900 329 336 -2688
2018-10-16 20:09:06 GMT 33.478928 -118.487831 11,100 339 333 -3968
2018-10-16 20:09:00 GMT 33.470947 -118.485519 11,700 0 323 -4736
2018-10-16 20:08:56 GMT 33.465008 -118.486206 11,950 19 322 -3328
2018-10-16 20:08:46 GMT 33.452866 -118.497383 12,450 66 349 -128
2018-10-16 20:08:39 GMT 33.452160 -118.512383 12,400 109 390 2624
2018-10-16 20:08:35 GMT 33.454514 -118.518364 12,225 126 412 1664
2018-10-16 20:08:25 GMT 33.469151 -118.537155 11,975 135 438 576
2018-10-16 20:08:18 GMT 33.479252 -118.548759 11,950 136 440 512
2018-10-16 20:08:14 GMT 33.484745 -118.554924 11,925 136 441 384
2018-10-16 20:08:07 GMT 33.495483 -118.567368 11,875 135 444 -512
2018-10-16 20:08:02 GMT 33.502014 -118.574883 11,850 135 445 -192
2018-10-16 20:07:56 GMT 33.510719 -118.585083 12,000 134 446 -704
2018-10-16 20:07:51 GMT 33.519196 -118.595169 11,925 134 445 -704
2018-10-16 20:07:44 GMT 33.527527 -118.605156 12,000 134 446 -832
2018-10-16 20:07:40 GMT 33.533997 -118.613106 12,025 134 446 -832
2018-10-16 20:07:35 GMT 33.542980 -118.624023 12,150 134 445 -1088
2018-10-16 20:07:29 GMT 33.549225 -118.631546 12,225 134 444 -1344
2018-10-16 20:07:24 GMT 33.557922 -118.642029 12,375 134 442 -1728
2018-10-16 20:07:20 GMT 33.564117 -118.649483 12,525 135 440 -1728
2018-10-16 20:07:14 GMT 33.572777 -118.659782 12,675 135 437 -1792
2018-10-16 20:07:08 GMT 33.579712 -118.667847 12,800 135 434 -1408
2018-10-16 20:07:03 GMT 33.589005 -118.678802 12,975 135 429 -448
2018-10-16 20:06:59 GMT 33.599487 -118.691132 13,000 135 428 128
2018-10-16 20:06:50 GMT 33.605736 -118.698692 13,000 134 426 -192
2018-10-16 20:06:47 GMT 33.611275 -118.705444 13,000 134 425 64
2018-10-16 20:06:41 GMT 33.618210 -118.714058 12,975 133 422 768
2018-10-16 20:06:34 GMT 33.626770 -118.724762 13,025 133 422 -256
2018-10-16 20:06:30 GMT 33.634415 -118.734459 13,025 133 422 -832
2018-10-16 20:06:25 GMT 33.640182 -118.741776 13,100 133 421 -512
2018-10-16 20:06:20 GMT 33.647232 -118.750832 13,125 133 420 320
2018-10-16 20:06:14 GMT 33.655838 -118.761703 13,075 133 423 384
2018-10-16 20:06:09 GMT 33.661366 -118.768730 13,025 132 425 256
2018-10-16 20:06:04 GMT 33.667923 -118.777229 13,000 132 426 128
2018-10-16 20:06:01 GMT 33.671280 -118.781609 13,000 132 428 448
2018-10-16 20:05:57 GMT 33.676849 -118.788719 13,000 132 428 -256
2018-10-16 20:05:52 GMT 33.685104 -118.799400 12,975 132 431 -192
2018-10-16 20:05:48 GMT 33.690414 -118.806267 13,000 132 433 -320
2018-10-16 20:05:42 GMT 33.699074 -118.817253 13,050 133 432 128
2018-10-16 20:05:39 GMT 33.701305 -118.820000 13,025 134 432 -192
2018-10-16 20:05:35 GMT 33.707016 -118.827057 13,025 134 432 704
2018-10-16 20:05:29 GMT 33.716808 -118.838882 12,925 135 435 -128
2018-10-16 20:05:26 GMT 33.720207 -118.843002 12,975 134 434 192
2018-10-16 20:05:16 GMT 33.735336 -118.860970 13,025 135 431 -384
2018-10-16 20:05:11 GMT 33.746155 -118.873749 13,025 135 429 -384
2018-10-16 20:05:08 GMT 33.746155 -118.873749 13,050 135 427 -192
2018-10-16 20:05:04 GMT 33.751099 -118.879578 13,025 135 427 -192
2018-10-16 20:04:57 GMT 33.761444 -118.892029 13,000 133 426 192
2018-10-16 20:04:54 GMT 33.765793 -118.897575 13,000 133 426 704
2018-10-16 20:04:49 GMT 33.772949 -118.906746 12,950 132 425 576
2018-10-16 20:04:46 GMT 33.776276 -118.911026 12,900 133 425 192
2018-10-16 20:04:43 GMT 33.780491 -118.916412 12,900 133 425 192
2018-10-16 20:04:36 GMT 33.788918 -118.927055 12,900 133 425 -448
2018-10-16 20:04:33 GMT 33.794769 -118.934402 12,900 133 424 -320
2018-10-16 20:04:29 GMT 33.799763 -118.940681 12,900 133 422 -64
2018-10-16 20:04:24 GMT 33.805618 -118.947968 12,900 133 420 0
2018-10-16 20:04:21 GMT 33.809818 -118.953209 12,925 133 421 64
2018-10-16 20:04:17 GMT 33.815639 -118.960480 12,925 134 420 -128
2018-10-16 20:04:11 GMT 33.824203 -118.970947 12,950 133 415 0
2018-10-16 20:04:05 GMT 33.831848 -118.980423 12,975 133 400 2944
2018-10-16 20:04:00 GMT 33.842640 -118.994003 12,925 134 407 1664
2018-10-16 20:03:54 GMT 33.852650 -119.006538 12,700 133 406 1920
2018-10-16 20:03:50 GMT 33.854744 -119.009171 12,675 133 403 2368
2018-10-16 20:03:42 GMT 33.863022 -119.019653 12,450 132 399 3008
2018-10-16 20:03:39 GMT 33.866180 -119.023750 12,225 132 399 3136
2018-10-16 20:03:35 GMT 33.871223 -119.030228 12,075 132 399 2880
2018-10-16 20:03:32 GMT 33.873871 -119.033669 11,975 132 398 2304
2018-10-16 20:03:28 GMT 33.879974 -119.041672 11,750 132 397 2112
2018-10-16 20:03:25 GMT 33.883575 -119.046341 11,625 134 395 1920
2018-10-16 20:03:19 GMT 33.889755 -119.053902 11,500 137 392 1216
2018-10-16 20:03:15 GMT 33.896301 -119.061081 11,325 138 388 1984
2018-10-16 20:03:12 GMT 33.900875 -119.065987 11,200 136 384 2368
2018-10-16 20:03:07 GMT 33.908184 -119.074173 11,000 135 381 2688
2018-10-16 20:03:04 GMT 33.910652 -119.077209 10,900 132 380 3200
2018-10-16 20:02:57 GMT 33.918686 -119.088600 10,550 129 377 3200
2018-10-16 20:02:54 GMT 33.922428 -119.094200 10,400 128 376 3584
2018-10-16 20:02:48 GMT 33.929039 -119.104156 10,025 128 377 3456
2018-10-16 20:02:42 GMT 33.934254 -119.112106 9,700 128 377 3904
2018-10-16 20:02:37 GMT 33.940308 -119.121155 9,375 129 379 4352
2018-10-16 20:02:34 GMT 33.943748 -119.125954 9,150 130 381 3776
2018-10-16 20:02:31 GMT 33.946823 -119.130302 9,000 130 382 4416
2018-10-16 20:02:28 GMT 33.950455 -119.135292 8,500 135 389 3584
2018-10-16 20:02:24 GMT 33.956268 -119.142914 8,325 134 388 4096
2018-10-16 20:02:21 GMT 33.960648 -119.148048 8,225 140 393 3200
2018-10-16 20:02:14 GMT 33.967911 -119.155083 7,800 165 392 2688
2018-10-16 20:02:10 GMT 33.974945 -119.160294 7,800 152 395 1472
2018-10-16 20:02:06 GMT 33.993191 -119.167557 7,700 169 377 2496
2018-10-16 20:02:00 GMT 33.993191 -119.167557 7,550 169 389 1728
2018-10-16 20:01:56 GMT 33.998520 -119.168701 7,450 169 385 1792
2018-10-16 20:01:50 GMT 34.011841 -119.171669 7,250 169 380 2176
2018-10-16 20:01:44 GMT 34.021679 -119.173798 6,125 169 377 2496
2018-10-16 20:01:41 GMT 34.026798 -119.174881 6,050 170 369 3520
2018-10-16 20:01:38 GMT 34.030380 -119.175652 6,750 169 370 3584
2018-10-16 20:01:28 GMT 34.047890 -119.179291 6,175 170 366 3776
2018-10-16 20:01:24 GMT 34.053566 -119.180489 5,925 170 364 2752
2018-10-16 20:01:16 GMT 34.068192 -119.183273 5,500 171 361 3776
2018-10-16 20:01:07 GMT 34.083641 -119.186096 4,850 171 358 3264
2018-10-16 20:00:55 GMT 34.102306 -119.189072 4,200 172 352 2176
2018-10-16 20:00:45 GMT 34.117996 -119.191345 3,925 175 339 1728
2018-10-16 20:00:35 GMT 34.134380 -119.190331 3,525 197 324 2944
2018-10-16 20:00:24 GMT 34.148300 -119.180656 2,950 228 319 3136
2018-10-16 20:00:11 GMT 34.156357 -119.160851 2,325 260 308 3776
2018-10-16 20:00:02 GMT 34.157227 -119.146393 1,925 267 297 3008
2018-10-16 19:59:52 GMT 34.157703 -119.128365 1,450 276 278 1664
2018-10-16 19:59:41 GMT 34.152908 -119.114059 1,125 312 259 1472

Making use of Plane Finder data

You are free to use the raw flight data, aircraft information and images provided in this report for your own purposes provided the data is correctly attributed to Plane Finder. We ask that you please credit Plane Finder and link to planefinder.net in close proximity to the content.

Optionally one of the following logos (no smaller then 150x24px) can be used and must link to planefinder.net

Embedding the Plane Finder map

You are welcome to embed the Plane Finder playback map on your website to offer visitors a more interactive experience. We suggest using the following HTML code:

<iframe src="//planefinder.net/data/report/N334AX-N334AX-7700-squawk-2018-10-16/map" width="800" height="600" seamless="seamless"></iframe>

Where our data comes from

Plane Finder has a global network of data feeds and antenna radars that receive data broadcast directly from aircraft. The primary technologies used are ADS-B and MLAT. We also show feeds from the FAA and a FLARM glider feed.

Click here to find out more about the Plane Finder network.

How we collect our data